sensor_id;sensor_type;location;lat;lon;timestamp;temperature;humidity
69335;SHT31;56477;52.742;15.242;2024-01-06T00:01:53;-1.03;97.95
69335;SHT31;56477;52.742;15.242;2024-01-06T00:04:18;-1.00;97.88
69335;SHT31;56477;52.742;15.242;2024-01-06T00:06:45;-1.04;98.01
69335;SHT31;56477;52.742;15.242;2024-01-06T00:09:10;-1.03;98.00
69335;SHT31;56477;52.742;15.242;2024-01-06T00:11:36;-1.04;97.72
69335;SHT31;56477;52.742;15.242;2024-01-06T00:14:02;-0.96;97.87
69335;SHT31;56477;52.742;15.242;2024-01-06T00:16:28;-0.99;97.92
69335;SHT31;56477;52.742;15.242;2024-01-06T00:18:54;-1.01;97.71
69335;SHT31;56477;52.742;15.242;2024-01-06T00:21:20;-0.94;97.96
69335;SHT31;56477;52.742;15.242;2024-01-06T00:23:46;-0.94;97.63
69335;SHT31;56477;52.742;15.242;2024-01-06T00:26:12;-0.97;97.81
69335;SHT31;56477;52.742;15.242;2024-01-06T00:28:41;-0.96;97.45
69335;SHT31;56477;52.742;15.242;2024-01-06T00:31:07;-1.01;97.53
69335;SHT31;56477;52.742;15.242;2024-01-06T00:33:33;-0.97;97.55
69335;SHT31;56477;52.742;15.242;2024-01-06T00:35:59;-0.97;97.81
69335;SHT31;56477;52.742;15.242;2024-01-06T00:38:25;-0.96;97.43
69335;SHT31;56477;52.742;15.242;2024-01-06T00:40:51;-1.01;97.51
69335;SHT31;56477;52.742;15.242;2024-01-06T00:43:17;-1.00;97.74
69335;SHT31;56477;52.742;15.242;2024-01-06T00:45:43;-1.03;98.03
69335;SHT31;56477;52.742;15.242;2024-01-06T00:48:09;-0.97;97.48
69335;SHT31;56477;52.742;15.242;2024-01-06T00:50:35;-0.99;97.44
69335;SHT31;56477;52.742;15.242;2024-01-06T00:53:00;-0.96;97.46
69335;SHT31;56477;52.742;15.242;2024-01-06T00:55:27;-1.01;97.32
69335;SHT31;56477;52.742;15.242;2024-01-06T00:57:52;-1.01;97.63
69335;SHT31;56477;52.742;15.242;2024-01-06T01:00:19;-0.99;97.51
69335;SHT31;56477;52.742;15.242;2024-01-06T01:02:45;-1.04;97.44
69335;SHT31;56477;52.742;15.242;2024-01-06T01:05:11;-0.97;97.76
69335;SHT31;56477;52.742;15.242;2024-01-06T01:07:36;-0.96;97.80
69335;SHT31;56477;52.742;15.242;2024-01-06T01:10:03;-1.04;97.41
69335;SHT31;56477;52.742;15.242;2024-01-06T01:12:30;-1.03;97.43
69335;SHT31;56477;52.742;15.242;2024-01-06T01:14:56;-1.04;97.63
69335;SHT31;56477;52.742;15.242;2024-01-06T01:17:22;-1.01;97.77
69335;SHT31;56477;52.742;15.242;2024-01-06T01:19:48;-1.01;97.68
69335;SHT31;56477;52.742;15.242;2024-01-06T01:22:14;-1.07;97.49
69335;SHT31;56477;52.742;15.242;2024-01-06T01:24:40;-1.04;97.67
69335;SHT31;56477;52.742;15.242;2024-01-06T01:27:05;-1.10;97.36
69335;SHT31;56477;52.742;15.242;2024-01-06T01:29:31;-1.10;97.44
69335;SHT31;56477;52.742;15.242;2024-01-06T01:31:57;-1.15;97.43
69335;SHT31;56477;52.742;15.242;2024-01-06T01:34:23;-1.14;97.49
69335;SHT31;56477;52.742;15.242;2024-01-06T01:36:49;-1.12;97.50
69335;SHT31;56477;52.742;15.242;2024-01-06T01:39:17;-1.05;97.51
69335;SHT31;56477;52.742;15.242;2024-01-06T01:41:43;-1.05;97.24
69335;SHT31;56477;52.742;15.242;2024-01-06T01:44:09;-1.10;97.34
69335;SHT31;56477;52.742;15.242;2024-01-06T01:46:35;-1.11;97.57
69335;SHT31;56477;52.742;15.242;2024-01-06T01:49:01;-1.05;97.49
69335;SHT31;56477;52.742;15.242;2024-01-06T01:51:35;-1.18;97.01
69335;SHT31;56477;52.742;15.242;2024-01-06T01:54:02;-1.20;97.38
69335;SHT31;56477;52.742;15.242;2024-01-06T01:56:30;-1.25;97.34
69335;SHT31;56477;52.742;15.242;2024-01-06T01:59:05;-1.18;97.54
69335;SHT31;56477;52.742;15.242;2024-01-06T02:01:32;-1.21;97.27
69335;SHT31;56477;52.742;15.242;2024-01-06T02:03:59;-1.25;97.07
69335;SHT31;56477;52.742;15.242;2024-01-06T02:06:25;-1.34;97.08
69335;SHT31;56477;52.742;15.242;2024-01-06T02:08:51;-1.24;97.45
69335;SHT31;56477;52.742;15.242;2024-01-06T02:11:17;-1.34;97.09
69335;SHT31;56477;52.742;15.242;2024-01-06T02:13:43;-1.32;97.16
69335;SHT31;56477;52.742;15.242;2024-01-06T02:16:09;-1.32;97.15
69335;SHT31;56477;52.742;15.242;2024-01-06T02:18:35;-1.32;97.27
69335;SHT31;56477;52.742;15.242;2024-01-06T02:21:02;-1.27;97.20
69335;SHT31;56477;52.742;15.242;2024-01-06T02:23:29;-1.24;97.20
69335;SHT31;56477;52.742;15.242;2024-01-06T02:25:55;-1.25;97.19
69335;SHT31;56477;52.742;15.242;2024-01-06T02:28:22;-1.28;97.11
69335;SHT31;56477;52.742;15.242;2024-01-06T02:30:49;-1.25;97.35
69335;SHT31;56477;52.742;15.242;2024-01-06T02:33:15;-1.22;97.06
69335;SHT31;56477;52.742;15.242;2024-01-06T02:35:41;-1.28;96.96
69335;SHT31;56477;52.742;15.242;2024-01-06T02:38:07;-1.28;97.21
69335;SHT31;56477;52.742;15.242;2024-01-06T02:40:34;-1.25;96.85
69335;SHT31;56477;52.742;15.242;2024-01-06T02:43:00;-1.25;96.92
69335;SHT31;56477;52.742;15.242;2024-01-06T02:45:26;-1.38;97.01
69335;SHT31;56477;52.742;15.242;2024-01-06T02:47:52;-1.38;97.04
69335;SHT31;56477;52.742;15.242;2024-01-06T02:50:18;-1.41;96.84
69335;SHT31;56477;52.742;15.242;2024-01-06T02:52:44;-1.42;97.21
69335;SHT31;56477;52.742;15.242;2024-01-06T02:55:11;-1.45;97.22
69335;SHT31;56477;52.742;15.242;2024-01-06T02:57:37;-1.42;97.04
69335;SHT31;56477;52.742;15.242;2024-01-06T03:00:04;-1.45;97.37
69335;SHT31;56477;52.742;15.242;2024-01-06T03:02:30;-1.40;96.98
69335;SHT31;56477;52.742;15.242;2024-01-06T03:04:56;-1.45;96.81
69335;SHT31;56477;52.742;15.242;2024-01-06T03:07:22;-1.38;96.87
69335;SHT31;56477;52.742;15.242;2024-01-06T03:09:48;-1.37;96.79
69335;SHT31;56477;52.742;15.242;2024-01-06T03:12:14;-1.40;96.54
69335;SHT31;56477;52.742;15.242;2024-01-06T03:14:40;-1.40;96.85
69335;SHT31;56477;52.742;15.242;2024-01-06T03:17:06;-1.41;96.84
69335;SHT31;56477;52.742;15.242;2024-01-06T03:19:31;-1.38;96.95
69335;SHT31;56477;52.742;15.242;2024-01-06T03:21:58;-1.42;96.76
69335;SHT31;56477;52.742;15.242;2024-01-06T03:24:25;-1.35;96.97
69335;SHT31;56477;52.742;15.242;2024-01-06T03:26:51;-1.44;96.61
69335;SHT31;56477;52.742;15.242;2024-01-06T03:29:17;-1.45;96.62
69335;SHT31;56477;52.742;15.242;2024-01-06T03:31:44;-1.42;97.28
69335;SHT31;56477;52.742;15.242;2024-01-06T03:34:10;-1.34;96.80
69335;SHT31;56477;52.742;15.242;2024-01-06T03:36:37;-1.38;96.59
69335;SHT31;56477;52.742;15.242;2024-01-06T03:39:04;-1.35;96.97
69335;SHT31;56477;52.742;15.242;2024-01-06T03:41:30;-1.47;96.65
69335;SHT31;56477;52.742;15.242;2024-01-06T03:43:56;-1.41;96.74
69335;SHT31;56477;52.742;15.242;2024-01-06T03:46:22;-1.38;96.67
69335;SHT31;56477;52.742;15.242;2024-01-06T03:48:48;-1.38;96.66
69335;SHT31;56477;52.742;15.242;2024-01-06T03:51:15;-1.37;96.77
69335;SHT31;56477;52.742;15.242;2024-01-06T03:53:41;-1.31;96.36
69335;SHT31;56477;52.742;15.242;2024-01-06T03:56:07;-1.32;96.29
69335;SHT31;56477;52.742;15.242;2024-01-06T03:58:33;-1.31;96.46
69335;SHT31;56477;52.742;15.242;2024-01-06T04:00:59;-1.32;96.61
69335;SHT31;56477;52.742;15.242;2024-01-06T04:03:25;-1.34;96.84
69335;SHT31;56477;52.742;15.242;2024-01-06T04:05:52;-1.35;96.88
69335;SHT31;56477;52.742;15.242;2024-01-06T04:08:18;-1.35;96.58
69335;SHT31;56477;52.742;15.242;2024-01-06T04:10:44;-1.31;96.80
69335;SHT31;56477;52.742;15.242;2024-01-06T04:13:11;-1.35;96.56
69335;SHT31;56477;52.742;15.242;2024-01-06T04:15:37;-1.30;96.55
69335;SHT31;56477;52.742;15.242;2024-01-06T04:18:04;-1.34;96.48
69335;SHT31;56477;52.742;15.242;2024-01-06T04:20:31;-1.41;96.34
69335;SHT31;56477;52.742;15.242;2024-01-06T04:22:57;-1.37;96.72
69335;SHT31;56477;52.742;15.242;2024-01-06T04:25:24;-1.31;96.69
69335;SHT31;56477;52.742;15.242;2024-01-06T04:27:49;-1.31;96.73
69335;SHT31;56477;52.742;15.242;2024-01-06T04:30:16;-1.41;96.45
69335;SHT31;56477;52.742;15.242;2024-01-06T04:32:42;-1.45;96.47
69335;SHT31;56477;52.742;15.242;2024-01-06T04:35:09;-1.40;96.74
69335;SHT31;56477;52.742;15.242;2024-01-06T04:37:36;-1.40;96.50
69335;SHT31;56477;52.742;15.242;2024-01-06T04:40:02;-1.48;96.35
69335;SHT31;56477;52.742;15.242;2024-01-06T04:42:29;-1.49;96.61
69335;SHT31;56477;52.742;15.242;2024-01-06T04:44:55;-1.59;96.71
69335;SHT31;56477;52.742;15.242;2024-01-06T04:47:21;-1.56;96.87
69335;SHT31;56477;52.742;15.242;2024-01-06T04:49:47;-1.54;96.75
69335;SHT31;56477;52.742;15.242;2024-01-06T04:52:13;-1.52;96.86
69335;SHT31;56477;52.742;15.242;2024-01-06T04:54:39;-1.49;97.08
69335;SHT31;56477;52.742;15.242;2024-01-06T04:57:05;-1.49;97.11
69335;SHT31;56477;52.742;15.242;2024-01-06T04:59:31;-1.48;96.56
69335;SHT31;56477;52.742;15.242;2024-01-06T05:01:57;-1.51;96.41
69335;SHT31;56477;52.742;15.242;2024-01-06T05:04:24;-1.56;96.39
69335;SHT31;56477;52.742;15.242;2024-01-06T05:06:53;-1.58;96.57
69335;SHT31;56477;52.742;15.242;2024-01-06T05:09:20;-1.49;96.63
69335;SHT31;56477;52.742;15.242;2024-01-06T05:11:46;-1.49;96.46
69335;SHT31;56477;52.742;15.242;2024-01-06T05:14:12;-1.51;96.41
69335;SHT31;56477;52.742;15.242;2024-01-06T05:16:38;-1.58;96.13
69335;SHT31;56477;52.742;15.242;2024-01-06T05:19:04;-1.52;96.73
69335;SHT31;56477;52.742;15.242;2024-01-06T05:21:30;-1.52;96.38
69335;SHT31;56477;52.742;15.242;2024-01-06T05:23:56;-1.54;96.27
69335;SHT31;56477;52.742;15.242;2024-01-06T05:26:22;-1.59;96.74
69335;SHT31;56477;52.742;15.242;2024-01-06T05:28:48;-1.56;96.67
69335;SHT31;56477;52.742;15.242;2024-01-06T05:31:14;-1.59;96.29
69335;SHT31;56477;52.742;15.242;2024-01-06T05:33:40;-1.56;96.51
69335;SHT31;56477;52.742;15.242;2024-01-06T05:36:06;-1.56;96.54
69335;SHT31;56477;52.742;15.242;2024-01-06T05:38:32;-1.55;96.76
69335;SHT31;56477;52.742;15.242;2024-01-06T05:40:58;-1.56;96.67
69335;SHT31;56477;52.742;15.242;2024-01-06T05:43:24;-1.59;96.51
69335;SHT31;56477;52.742;15.242;2024-01-06T05:45:50;-1.52;96.53
69335;SHT31;56477;52.742;15.242;2024-01-06T05:48:16;-1.52;96.18
69335;SHT31;56477;52.742;15.242;2024-01-06T05:50:42;-1.54;96.53
69335;SHT31;56477;52.742;15.242;2024-01-06T05:53:09;-1.48;96.39
69335;SHT31;56477;52.742;15.242;2024-01-06T05:55:36;-1.47;96.63
69335;SHT31;56477;52.742;15.242;2024-01-06T05:58:02;-1.48;96.57
69335;SHT31;56477;52.742;15.242;2024-01-06T06:00:28;-1.48;96.33
69335;SHT31;56477;52.742;15.242;2024-01-06T06:02:57;-1.44;96.29
69335;SHT31;56477;52.742;15.242;2024-01-06T06:05:23;-1.47;95.95
69335;SHT31;56477;52.742;15.242;2024-01-06T06:07:49;-1.42;95.85
69335;SHT31;56477;52.742;15.242;2024-01-06T06:10:15;-1.47;95.89
69335;SHT31;56477;52.742;15.242;2024-01-06T06:12:44;-1.47;96.03
69335;SHT31;56477;52.742;15.242;2024-01-06T06:15:10;-1.45;95.85
69335;SHT31;56477;52.742;15.242;2024-01-06T06:17:36;-1.45;95.85
69335;SHT31;56477;52.742;15.242;2024-01-06T06:20:03;-1.48;96.28
69335;SHT31;56477;52.742;15.242;2024-01-06T06:22:29;-1.48;96.14
69335;SHT31;56477;52.742;15.242;2024-01-06T06:24:58;-1.47;96.05
69335;SHT31;56477;52.742;15.242;2024-01-06T06:27:24;-1.49;95.97
69335;SHT31;56477;52.742;15.242;2024-01-06T06:29:50;-1.42;96.02
69335;SHT31;56477;52.742;15.242;2024-01-06T06:32:16;-1.49;95.83
69335;SHT31;56477;52.742;15.242;2024-01-06T06:34:43;-1.52;96.05
69335;SHT31;56477;52.742;15.242;2024-01-06T06:37:09;-1.56;96.13
69335;SHT31;56477;52.742;15.242;2024-01-06T06:39:35;-1.55;95.84
69335;SHT31;56477;52.742;15.242;2024-01-06T06:42:02;-1.44;95.84
69335;SHT31;56477;52.742;15.242;2024-01-06T06:44:28;-1.42;95.63
69335;SHT31;56477;52.742;15.242;2024-01-06T06:46:56;-1.44;95.72
69335;SHT31;56477;52.742;15.242;2024-01-06T06:49:22;-1.42;95.63
69335;SHT31;56477;52.742;15.242;2024-01-06T06:51:48;-1.44;95.41
69335;SHT31;56477;52.742;15.242;2024-01-06T06:54:15;-1.47;95.74
69335;SHT31;56477;52.742;15.242;2024-01-06T06:56:44;-1.48;95.52
69335;SHT31;56477;52.742;15.242;2024-01-06T06:59:10;-1.41;95.47
69335;SHT31;56477;52.742;15.242;2024-01-06T07:01:37;-1.40;95.41
69335;SHT31;56477;52.742;15.242;2024-01-06T07:04:03;-1.41;95.72
69335;SHT31;56477;52.742;15.242;2024-01-06T07:06:30;-1.44;95.74
69335;SHT31;56477;52.742;15.242;2024-01-06T07:08:56;-1.38;95.53
69335;SHT31;56477;52.742;15.242;2024-01-06T07:11:23;-1.37;95.62
69335;SHT31;56477;52.742;15.242;2024-01-06T07:13:49;-1.34;95.40
69335;SHT31;56477;52.742;15.242;2024-01-06T07:16:16;-1.37;95.69
69335;SHT31;56477;52.742;15.242;2024-01-06T07:18:42;-1.34;95.41
69335;SHT31;56477;52.742;15.242;2024-01-06T07:21:08;-1.31;95.50
69335;SHT31;56477;52.742;15.242;2024-01-06T07:23:34;-1.34;95.30
69335;SHT31;56477;52.742;15.242;2024-01-06T07:26:01;-1.35;95.67
69335;SHT31;56477;52.742;15.242;2024-01-06T07:28:26;-1.34;95.32
69335;SHT31;56477;52.742;15.242;2024-01-06T07:30:53;-1.41;95.28
69335;SHT31;56477;52.742;15.242;2024-01-06T07:33:19;-1.40;95.11
69335;SHT31;56477;52.742;15.242;2024-01-06T07:35:45;-1.40;95.38
69335;SHT31;56477;52.742;15.242;2024-01-06T07:38:12;-1.44;95.38
69335;SHT31;56477;52.742;15.242;2024-01-06T07:40:38;-1.40;95.44
69335;SHT31;56477;52.742;15.242;2024-01-06T07:43:04;-1.35;95.52
69335;SHT31;56477;52.742;15.242;2024-01-06T07:45:31;-1.35;95.31
69335;SHT31;56477;52.742;15.242;2024-01-06T07:48:00;-1.35;95.52
69335;SHT31;56477;52.742;15.242;2024-01-06T07:50:26;-1.34;95.91
69335;SHT31;56477;52.742;15.242;2024-01-06T07:52:53;-1.28;95.39
69335;SHT31;56477;52.742;15.242;2024-01-06T07:55:20;-1.30;95.25
69335;SHT31;56477;52.742;15.242;2024-01-06T07:57:46;-1.31;95.32
69335;SHT31;56477;52.742;15.242;2024-01-06T08:00:12;-1.31;95.29
69335;SHT31;56477;52.742;15.242;2024-01-06T08:02:42;-1.34;95.20
69335;SHT31;56477;52.742;15.242;2024-01-06T08:05:08;-1.42;95.27
69335;SHT31;56477;52.742;15.242;2024-01-06T08:07:35;-1.38;95.39
69335;SHT31;56477;52.742;15.242;2024-01-06T08:10:01;-1.37;95.30
69335;SHT31;56477;52.742;15.242;2024-01-06T08:12:30;-1.35;95.43
69335;SHT31;56477;52.742;15.242;2024-01-06T08:14:56;-1.38;95.16
69335;SHT31;56477;52.742;15.242;2024-01-06T08:17:22;-1.44;95.28
69335;SHT31;56477;52.742;15.242;2024-01-06T08:19:48;-1.45;95.36
69335;SHT31;56477;52.742;15.242;2024-01-06T08:22:14;-1.49;95.18
69335;SHT31;56477;52.742;15.242;2024-01-06T08:24:40;-1.41;95.12
69335;SHT31;56477;52.742;15.242;2024-01-06T08:27:06;-1.41;95.11
69335;SHT31;56477;52.742;15.242;2024-01-06T08:29:33;-1.38;95.29
69335;SHT31;56477;52.742;15.242;2024-01-06T08:31:59;-1.45;95.21
69335;SHT31;56477;52.742;15.242;2024-01-06T08:34:25;-1.34;95.26
69335;SHT31;56477;52.742;15.242;2024-01-06T08:36:50;-1.35;95.19
69335;SHT31;56477;52.742;15.242;2024-01-06T08:39:17;-1.40;95.21
69335;SHT31;56477;52.742;15.242;2024-01-06T08:41:43;-1.30;95.16
69335;SHT31;56477;52.742;15.242;2024-01-06T08:44:09;-1.44;94.81
69335;SHT31;56477;52.742;15.242;2024-01-06T08:46:35;-1.32;95.11
69335;SHT31;56477;52.742;15.242;2024-01-06T08:49:01;-1.24;95.04
69335;SHT31;56477;52.742;15.242;2024-01-06T08:51:27;-1.30;94.99
69335;SHT31;56477;52.742;15.242;2024-01-06T08:53:53;-1.21;94.78
69335;SHT31;56477;52.742;15.242;2024-01-06T08:56:19;-1.22;94.65
69335;SHT31;56477;52.742;15.242;2024-01-06T08:58:45;-1.22;94.51
69335;SHT31;56477;52.742;15.242;2024-01-06T09:01:12;-1.31;94.43
69335;SHT31;56477;52.742;15.242;2024-01-06T09:03:39;-1.25;94.89
69335;SHT31;56477;52.742;15.242;2024-01-06T09:06:05;-1.25;94.64
69335;SHT31;56477;52.742;15.242;2024-01-06T09:08:31;-1.24;94.79
69335;SHT31;56477;52.742;15.242;2024-01-06T09:10:58;-1.24;94.71
69335;SHT31;56477;52.742;15.242;2024-01-06T09:13:25;-1.24;94.44
69335;SHT31;56477;52.742;15.242;2024-01-06T09:15:51;-1.15;94.39
69335;SHT31;56477;52.742;15.242;2024-01-06T09:18:18;-1.14;94.49
69335;SHT31;56477;52.742;15.242;2024-01-06T09:20:43;-1.14;94.76
69335;SHT31;56477;52.742;15.242;2024-01-06T09:23:10;-1.12;94.55
69335;SHT31;56477;52.742;15.242;2024-01-06T09:25:36;-1.07;94.00
69335;SHT31;56477;52.742;15.242;2024-01-06T09:28:02;-1.14;94.23
69335;SHT31;56477;52.742;15.242;2024-01-06T09:30:28;-1.22;94.23
69335;SHT31;56477;52.742;15.242;2024-01-06T09:32:54;-1.30;94.25
69335;SHT31;56477;52.742;15.242;2024-01-06T09:35:20;-1.21;94.38
69335;SHT31;56477;52.742;15.242;2024-01-06T09:37:46;-1.18;94.49
69335;SHT31;56477;52.742;15.242;2024-01-06T09:40:12;-1.11;94.46
69335;SHT31;56477;52.742;15.242;2024-01-06T09:42:42;-1.12;94.25
69335;SHT31;56477;52.742;15.242;2024-01-06T09:45:08;-1.14;93.98
69335;SHT31;56477;52.742;15.242;2024-01-06T09:47:34;-1.11;94.00
69335;SHT31;56477;52.742;15.242;2024-01-06T09:50:02;-1.10;93.92
69335;SHT31;56477;52.742;15.242;2024-01-06T09:52:32;-1.12;94.03
69335;SHT31;56477;52.742;15.242;2024-01-06T09:55:00;-1.15;94.30
69335;SHT31;56477;52.742;15.242;2024-01-06T09:57:28;-1.12;93.89
69335;SHT31;56477;52.742;15.242;2024-01-06T09:59:55;-1.17;93.75
69335;SHT31;56477;52.742;15.242;2024-01-06T10:02:22;-1.11;93.76
69335;SHT31;56477;52.742;15.242;2024-01-06T10:04:48;-1.30;93.75
69335;SHT31;56477;52.742;15.242;2024-01-06T10:07:15;-1.28;93.84
69335;SHT31;56477;52.742;15.242;2024-01-06T10:09:41;-1.22;93.91
69335;SHT31;56477;52.742;15.242;2024-01-06T10:12:08;-1.18;94.02
69335;SHT31;56477;52.742;15.242;2024-01-06T10:14:35;-1.25;94.13
69335;SHT31;56477;52.742;15.242;2024-01-06T10:17:06;-1.14;94.18
69335;SHT31;56477;52.742;15.242;2024-01-06T10:19:32;-1.12;94.12
69335;SHT31;56477;52.742;15.242;2024-01-06T10:21:58;-1.12;93.85
69335;SHT31;56477;52.742;15.242;2024-01-06T10:24:27;-1.03;94.00
69335;SHT31;56477;52.742;15.242;2024-01-06T10:26:53;-1.10;93.74
69335;SHT31;56477;52.742;15.242;2024-01-06T10:29:19;-0.99;93.54
69335;SHT31;56477;52.742;15.242;2024-01-06T10:31:45;-0.96;93.25
69335;SHT31;56477;52.742;15.242;2024-01-06T10:34:11;-0.94;93.10
69335;SHT31;56477;52.742;15.242;2024-01-06T10:36:37;-0.90;92.68
69335;SHT31;56477;52.742;15.242;2024-01-06T10:39:03;-0.84;92.56
69335;SHT31;56477;52.742;15.242;2024-01-06T10:41:30;-0.91;92.69
69335;SHT31;56477;52.742;15.242;2024-01-06T10:43:58;-0.83;92.70
69335;SHT31;56477;52.742;15.242;2024-01-06T10:46:28;-0.74;92.75
69335;SHT31;56477;52.742;15.242;2024-01-06T10:48:55;-0.79;92.62
69335;SHT31;56477;52.742;15.242;2024-01-06T10:51:23;-0.96;91.88
69335;SHT31;56477;52.742;15.242;2024-01-06T10:53:50;-0.90;92.22
69335;SHT31;56477;52.742;15.242;2024-01-06T10:56:17;-0.82;92.27
69335;SHT31;56477;52.742;15.242;2024-01-06T10:58:48;-0.82;92.35
69335;SHT31;56477;52.742;15.242;2024-01-06T11:01:21;-0.74;92.10
69335;SHT31;56477;52.742;15.242;2024-01-06T11:03:48;-0.89;91.76
69335;SHT31;56477;52.742;15.242;2024-01-06T11:06:15;-0.77;91.84
69335;SHT31;56477;52.742;15.242;2024-01-06T11:09:06;-0.74;91.38
69335;SHT31;56477;52.742;15.242;2024-01-06T11:11:35;-0.66;90.99
69335;SHT31;56477;52.742;15.242;2024-01-06T11:14:22;-0.58;90.93
69335;SHT31;56477;52.742;15.242;2024-01-06T11:16:49;-0.55;90.20
69335;SHT31;56477;52.742;15.242;2024-01-06T11:22:23;-0.22;89.75
69335;SHT31;56477;52.742;15.242;2024-01-06T11:24:50;-0.51;89.44
69335;SHT31;56477;52.742;15.242;2024-01-06T11:27:24;-0.29;89.60
69335;SHT31;56477;52.742;15.242;2024-01-06T11:30:01;-0.24;89.93
69335;SHT31;56477;52.742;15.242;2024-01-06T11:32:36;-0.31;88.95
69335;SHT31;56477;52.742;15.242;2024-01-06T11:35:11;-0.14;88.42
69335;SHT31;56477;52.742;15.242;2024-01-06T11:40:16;-0.35;88.35
69335;SHT31;56477;52.742;15.242;2024-01-06T11:42:49;-0.26;88.76
69335;SHT31;56477;52.742;15.242;2024-01-06T11:45:21;-0.38;88.33
69335;SHT31;56477;52.742;15.242;2024-01-06T11:47:48;-0.46;88.44
69335;SHT31;56477;52.742;15.242;2024-01-06T11:50:14;-0.46;88.38
69335;SHT31;56477;52.742;15.242;2024-01-06T11:52:41;-0.32;88.52
69335;SHT31;56477;52.742;15.242;2024-01-06T11:55:08;-0.26;88.20
69335;SHT31;56477;52.742;15.242;2024-01-06T11:57:35;-0.41;87.96
69335;SHT31;56477;52.742;15.242;2024-01-06T12:00:01;-0.52;87.20
69335;SHT31;56477;52.742;15.242;2024-01-06T12:02:30;-0.25;88.18
69335;SHT31;56477;52.742;15.242;2024-01-06T12:04:55;-0.19;87.12
69335;SHT31;56477;52.742;15.242;2024-01-06T12:07:22;-0.12;86.52
69335;SHT31;56477;52.742;15.242;2024-01-06T12:09:48;-0.11;86.97
69335;SHT31;56477;52.742;15.242;2024-01-06T12:12:18;-0.22;86.13
69335;SHT31;56477;52.742;15.242;2024-01-06T12:14:44;-0.29;86.76
69335;SHT31;56477;52.742;15.242;2024-01-06T12:17:12;-0.32;86.67
69335;SHT31;56477;52.742;15.242;2024-01-06T12:19:39;-0.41;86.46
69335;SHT31;56477;52.742;15.242;2024-01-06T12:22:12;-0.41;86.54
69335;SHT31;56477;52.742;15.242;2024-01-06T12:24:41;-0.42;87.48
69335;SHT31;56477;52.742;15.242;2024-01-06T12:27:09;-0.38;86.61
69335;SHT31;56477;52.742;15.242;2024-01-06T12:29:38;-0.43;86.55
69335;SHT31;56477;52.742;15.242;2024-01-06T12:32:06;-0.49;86.66
69335;SHT31;56477;52.742;15.242;2024-01-06T12:34:34;-0.43;86.53
69335;SHT31;56477;52.742;15.242;2024-01-06T12:37:01;-0.39;85.95
69335;SHT31;56477;52.742;15.242;2024-01-06T12:39:30;-0.33;85.66
69335;SHT31;56477;52.742;15.242;2024-01-06T12:41:57;-0.49;85.67
69335;SHT31;56477;52.742;15.242;2024-01-06T12:44:24;-0.46;86.22
69335;SHT31;56477;52.742;15.242;2024-01-06T12:46:51;-0.51;86.05
69335;SHT31;56477;52.742;15.242;2024-01-06T12:49:16;-0.58;85.67
69335;SHT31;56477;52.742;15.242;2024-01-06T12:51:43;-0.69;86.81
69335;SHT31;56477;52.742;15.242;2024-01-06T12:54:09;-0.61;87.03
69335;SHT31;56477;52.742;15.242;2024-01-06T12:56:36;-0.62;86.79
69335;SHT31;56477;52.742;15.242;2024-01-06T12:59:01;-0.53;86.50
69335;SHT31;56477;52.742;15.242;2024-01-06T13:01:28;-0.66;85.93
69335;SHT31;56477;52.742;15.242;2024-01-06T13:03:54;-0.66;86.64
69335;SHT31;56477;52.742;15.242;2024-01-06T13:06:20;-0.73;85.95
69335;SHT31;56477;52.742;15.242;2024-01-06T13:08:46;-0.79;85.76
69335;SHT31;56477;52.742;15.242;2024-01-06T13:11:13;-0.74;85.92
69335;SHT31;56477;52.742;15.242;2024-01-06T13:13:39;-0.73;85.64
69335;SHT31;56477;52.742;15.242;2024-01-06T13:16:05;-0.68;86.33
69335;SHT31;56477;52.742;15.242;2024-01-06T13:18:31;-0.68;86.34
69335;SHT31;56477;52.742;15.242;2024-01-06T13:20:57;-0.61;86.28
69335;SHT31;56477;52.742;15.242;2024-01-06T13:23:23;-0.66;85.49
69335;SHT31;56477;52.742;15.242;2024-01-06T13:25:49;-0.58;86.49
69335;SHT31;56477;52.742;15.242;2024-01-06T13:28:15;-0.65;85.70
69335;SHT31;56477;52.742;15.242;2024-01-06T13:30:41;-0.68;85.74
69335;SHT31;56477;52.742;15.242;2024-01-06T13:33:08;-0.68;86.00
69335;SHT31;56477;52.742;15.242;2024-01-06T13:35:36;-0.69;86.38
69335;SHT31;56477;52.742;15.242;2024-01-06T13:38:05;-0.73;86.41
69335;SHT31;56477;52.742;15.242;2024-01-06T13:40:35;-0.72;86.19
69335;SHT31;56477;52.742;15.242;2024-01-06T13:43:01;-0.74;85.46
69335;SHT31;56477;52.742;15.242;2024-01-06T13:45:30;-0.74;85.99
69335;SHT31;56477;52.742;15.242;2024-01-06T13:47:56;-0.74;86.25
69335;SHT31;56477;52.742;15.242;2024-01-06T13:50:23;-0.69;87.02
69335;SHT31;56477;52.742;15.242;2024-01-06T13:52:49;-0.73;86.05
69335;SHT31;56477;52.742;15.242;2024-01-06T13:55:15;-0.70;85.65
69335;SHT31;56477;52.742;15.242;2024-01-06T13:57:41;-0.80;85.67
69335;SHT31;56477;52.742;15.242;2024-01-06T14:00:10;-0.84;86.67
69335;SHT31;56477;52.742;15.242;2024-01-06T14:02:37;-0.79;85.85
69335;SHT31;56477;52.742;15.242;2024-01-06T14:05:05;-0.80;85.99
69335;SHT31;56477;52.742;15.242;2024-01-06T14:07:35;-0.84;86.34
69335;SHT31;56477;52.742;15.242;2024-01-06T14:10:01;-0.82;86.53
69335;SHT31;56477;52.742;15.242;2024-01-06T14:12:30;-0.80;86.22
69335;SHT31;56477;52.742;15.242;2024-01-06T14:14:56;-0.83;86.19
69335;SHT31;56477;52.742;15.242;2024-01-06T14:17:22;-0.83;86.54
69335;SHT31;56477;52.742;15.242;2024-01-06T14:19:49;-0.94;85.58
69335;SHT31;56477;52.742;15.242;2024-01-06T14:22:14;-0.97;85.96
69335;SHT31;56477;52.742;15.242;2024-01-06T14:24:40;-0.89;86.39
69335;SHT31;56477;52.742;15.242;2024-01-06T14:27:06;-0.93;85.44
69335;SHT31;56477;52.742;15.242;2024-01-06T14:29:32;-0.90;86.73
69335;SHT31;56477;52.742;15.242;2024-01-06T14:31:58;-0.90;86.21
69335;SHT31;56477;52.742;15.242;2024-01-06T14:34:24;-0.90;86.47
69335;SHT31;56477;52.742;15.242;2024-01-06T14:36:50;-0.91;86.52
69335;SHT31;56477;52.742;15.242;2024-01-06T14:39:17;-0.91;86.20
69335;SHT31;56477;52.742;15.242;2024-01-06T14:41:43;-0.91;86.77
69335;SHT31;56477;52.742;15.242;2024-01-06T14:44:09;-0.91;86.65
69335;SHT31;56477;52.742;15.242;2024-01-06T14:46:36;-0.93;87.33
69335;SHT31;56477;52.742;15.242;2024-01-06T14:49:03;-0.97;86.40
69335;SHT31;56477;52.742;15.242;2024-01-06T14:51:29;-0.96;85.96
69335;SHT31;56477;52.742;15.242;2024-01-06T14:53:55;-0.93;86.76
69335;SHT31;56477;52.742;15.242;2024-01-06T14:56:23;-0.94;86.70
69335;SHT31;56477;52.742;15.242;2024-01-06T14:58:49;-0.87;87.34
69335;SHT31;56477;52.742;15.242;2024-01-06T15:01:16;-0.84;87.24
69335;SHT31;56477;52.742;15.242;2024-01-06T15:03:42;-0.89;86.96
69335;SHT31;56477;52.742;15.242;2024-01-06T15:06:08;-0.89;87.41
69335;SHT31;56477;52.742;15.242;2024-01-06T15:08:34;-0.93;87.02
69335;SHT31;56477;52.742;15.242;2024-01-06T15:11:00;-0.97;87.50
69335;SHT31;56477;52.742;15.242;2024-01-06T15:13:26;-0.96;88.07
69335;SHT31;56477;52.742;15.242;2024-01-06T15:15:52;-1.01;87.68
69335;SHT31;56477;52.742;15.242;2024-01-06T15:18:18;-1.00;87.35